sensor_id;sensor_type;location;lat;lon;timestamp;pressure;altitude;pressure_sealevel;temperature;humidity
2711;BME280;20721;47.402;8.550;2023-12-22T00:01:35;95210;;;9.51;59.58
2711;BME280;20721;47.402;8.550;2023-12-22T00:03:34;95229;;;9.49;59.28
2711;BME280;20721;47.402;8.550;2023-12-22T00:05:34;95229;;;9.53;59.26
2711;BME280;20721;47.402;8.550;2023-12-22T00:07:34;95212;;;9.51;59.16
2711;BME280;20721;47.402;8.550;2023-12-22T00:09:34;95224;;;9.40;59.69
2711;BME280;20721;47.402;8.550;2023-12-22T00:11:34;95210;;;9.43;59.54
2711;BME280;20721;47.402;8.550;2023-12-22T00:13:35;95228;;;9.48;59.55
2711;BME280;20721;47.402;8.550;2023-12-22T00:15:34;95222;;;9.39;59.10
2711;BME280;20721;47.402;8.550;2023-12-22T00:17:34;95220;;;9.41;59.60
2711;BME280;20721;47.402;8.550;2023-12-22T00:19:35;95217;;;9.53;59.67
2711;BME280;20721;47.402;8.550;2023-12-22T00:21:34;95236;;;9.47;59.35
2711;BME280;20721;47.402;8.550;2023-12-22T00:23:35;95245;;;9.61;59.62
2711;BME280;20721;47.402;8.550;2023-12-22T00:25:34;95241;;;9.74;59.72
2711;BME280;20721;47.402;8.550;2023-12-22T00:27:34;95252;;;9.82;59.74
2711;BME280;20721;47.402;8.550;2023-12-22T00:29:37;95248;;;9.88;59.07
2711;BME280;20721;47.402;8.550;2023-12-22T00:31:34;95255;;;9.85;59.30
2711;BME280;20721;47.402;8.550;2023-12-22T00:33:34;95261;;;9.66;59.38
2711;BME280;20721;47.402;8.550;2023-12-22T00:35:35;95272;;;9.55;59.60
2711;BME280;20721;47.402;8.550;2023-12-22T00:37:35;95271;;;9.36;60.13
2711;BME280;20721;47.402;8.550;2023-12-22T00:39:35;95247;;;9.33;60.35
2711;BME280;20721;47.402;8.550;2023-12-22T00:41:34;95259;;;9.36;60.30
2711;BME280;20721;47.402;8.550;2023-12-22T00:43:35;95255;;;9.28;60.60
2711;BME280;20721;47.402;8.550;2023-12-22T00:45:34;95250;;;9.31;60.60
2711;BME280;20721;47.402;8.550;2023-12-22T00:47:35;95261;;;9.39;60.39
2711;BME280;20721;47.402;8.550;2023-12-22T00:50:34;95270;;;9.47;60.28
2711;BME280;20721;47.402;8.550;2023-12-22T00:52:34;95276;;;9.55;60.12
2711;BME280;20721;47.402;8.550;2023-12-22T00:54:34;95290;;;9.61;59.54
2711;BME280;20721;47.402;8.550;2023-12-22T00:56:34;95281;;;9.53;59.27
2711;BME280;20721;47.402;8.550;2023-12-22T00:58:35;95286;;;9.44;59.38
2711;BME280;20721;47.402;8.550;2023-12-22T01:00:34;95293;;;9.29;59.36
2711;BME280;20721;47.402;8.550;2023-12-22T01:02:34;95300;;;9.33;59.36
2711;BME280;20721;47.402;8.550;2023-12-22T01:04:34;95302;;;9.40;59.26
2711;BME280;20721;47.402;8.550;2023-12-22T01:07:35;95318;;;9.43;59.25
2711;BME280;20721;47.402;8.550;2023-12-22T01:09:35;95314;;;9.56;59.22
2711;BME280;20721;47.402;8.550;2023-12-22T01:11:34;95330;;;9.50;59.05
2711;BME280;20721;47.402;8.550;2023-12-22T01:13:35;95328;;;9.45;59.12
2711;BME280;20721;47.402;8.550;2023-12-22T01:15:34;95338;;;9.48;59.03
2711;BME280;20721;47.402;8.550;2023-12-22T01:17:35;95326;;;9.34;59.68
2711;BME280;20721;47.402;8.550;2023-12-22T01:19:35;95327;;;9.38;60.51
2711;BME280;20721;47.402;8.550;2023-12-22T01:21:35;95341;;;9.43;60.68
2711;BME280;20721;47.402;8.550;2023-12-22T01:23:34;95347;;;9.41;60.79
2711;BME280;20721;47.402;8.550;2023-12-22T01:25:34;95337;;;9.46;61.27
2711;BME280;20721;47.402;8.550;2023-12-22T01:27:34;95348;;;9.43;62.13
2711;BME280;20721;47.402;8.550;2023-12-22T01:30:35;95357;;;9.33;63.35
2711;BME280;20721;47.402;8.550;2023-12-22T01:32:36;95373;;;9.39;64.30
2711;BME280;20721;47.402;8.550;2023-12-22T01:34:35;95368;;;9.27;65.03
2711;BME280;20721;47.402;8.550;2023-12-22T01:36:35;95388;;;9.07;64.26
2711;BME280;20721;47.402;8.550;2023-12-22T01:38:34;95369;;;8.78;64.37
2711;BME280;20721;47.402;8.550;2023-12-22T01:40:36;95361;;;8.48;65.44
2711;BME280;20721;47.402;8.550;2023-12-22T01:42:35;95373;;;8.48;65.79
2711;BME280;20721;47.402;8.550;2023-12-22T01:44:35;95375;;;8.34;65.93
2711;BME280;20721;47.402;8.550;2023-12-22T01:46:35;95370;;;8.27;65.87
2711;BME280;20721;47.402;8.550;2023-12-22T01:49:35;95340;;;8.26;66.13
2711;BME280;20721;47.402;8.550;2023-12-22T01:51:35;95305;;;8.23;66.46
2711;BME280;20721;47.402;8.550;2023-12-22T01:53:39;95310;;;8.20;66.69
2711;BME280;20721;47.402;8.550;2023-12-22T01:55:35;95328;;;8.17;67.04
2711;BME280;20721;47.402;8.550;2023-12-22T01:57:35;95332;;;8.25;67.29
2711;BME280;20721;47.402;8.550;2023-12-22T01:59:35;95341;;;8.38;67.31
2711;BME280;20721;47.402;8.550;2023-12-22T02:01:35;95346;;;8.40;66.98
2711;BME280;20721;47.402;8.550;2023-12-22T02:03:36;95330;;;8.35;67.03
2711;BME280;20721;47.402;8.550;2023-12-22T02:05:35;95341;;;8.36;67.02
2711;BME280;20721;47.402;8.550;2023-12-22T02:07:35;95336;;;8.43;67.36
2711;BME280;20721;47.402;8.550;2023-12-22T02:09:35;95334;;;8.50;66.70
2711;BME280;20721;47.402;8.550;2023-12-22T02:11:35;95330;;;8.53;66.30
2711;BME280;20721;47.402;8.550;2023-12-22T02:13:35;95336;;;8.69;66.08
2711;BME280;20721;47.402;8.550;2023-12-22T02:15:35;95342;;;8.78;65.78
2711;BME280;20721;47.402;8.550;2023-12-22T02:22:35;95325;;;8.74;66.73
2711;BME280;20721;47.402;8.550;2023-12-22T02:24:35;95321;;;8.88;65.97
2711;BME280;20721;47.402;8.550;2023-12-22T02:26:36;95318;;;9.04;65.36
2711;BME280;20721;47.402;8.550;2023-12-22T02:28:35;95333;;;9.15;64.79
2711;BME280;20721;47.402;8.550;2023-12-22T02:31:37;95337;;;9.20;64.49
2711;BME280;20721;47.402;8.550;2023-12-22T02:33:35;95327;;;9.25;64.64
2711;BME280;20721;47.402;8.550;2023-12-22T02:35:36;95353;;;9.34;64.28
2711;BME280;20721;47.402;8.550;2023-12-22T02:37:35;95334;;;9.21;64.96
2711;BME280;20721;47.402;8.550;2023-12-22T02:40:35;95332;;;9.20;64.38
2711;BME280;20721;47.402;8.550;2023-12-22T02:42:36;95343;;;9.20;64.53
2711;BME280;20721;47.402;8.550;2023-12-22T02:44:35;95338;;;9.01;64.70
2711;BME280;20721;47.402;8.550;2023-12-22T02:46:35;95342;;;8.75;64.32
2711;BME280;20721;47.402;8.550;2023-12-22T02:48:35;95344;;;8.77;65.91
2711;BME280;20721;47.402;8.550;2023-12-22T02:50:35;95344;;;8.68;65.25
2711;BME280;20721;47.402;8.550;2023-12-22T02:52:35;95334;;;8.68;65.85
2711;BME280;20721;47.402;8.550;2023-12-22T02:54:35;95335;;;8.70;65.66
2711;BME280;20721;47.402;8.550;2023-12-22T02:56:35;95333;;;8.64;66.16
2711;BME280;20721;47.402;8.550;2023-12-22T02:58:35;95338;;;8.63;66.16
2711;BME280;20721;47.402;8.550;2023-12-22T03:00:35;95326;;;8.65;66.54
2711;BME280;20721;47.402;8.550;2023-12-22T03:02:35;95333;;;8.74;66.38
2711;BME280;20721;47.402;8.550;2023-12-22T03:04:35;95310;;;8.48;66.00
2711;BME280;20721;47.402;8.550;2023-12-22T03:06:35;95332;;;8.26;66.31
2711;BME280;20721;47.402;8.550;2023-12-22T03:08:35;95311;;;7.99;67.10
2711;BME280;20721;47.402;8.550;2023-12-22T03:10:35;95318;;;7.95;67.45
2711;BME280;20721;47.402;8.550;2023-12-22T03:12:35;95326;;;8.02;66.84
2711;BME280;20721;47.402;8.550;2023-12-22T03:14:35;95339;;;8.06;66.66
2711;BME280;20721;47.402;8.550;2023-12-22T03:16:35;95355;;;8.18;65.93
2711;BME280;20721;47.402;8.550;2023-12-22T03:18:37;95351;;;8.11;66.55
2711;BME280;20721;47.402;8.550;2023-12-22T03:20:35;95359;;;8.16;66.90
2711;BME280;20721;47.402;8.550;2023-12-22T03:22:35;95364;;;8.18;66.73
2711;BME280;20721;47.402;8.550;2023-12-22T03:24:36;95350;;;8.27;66.07
2711;BME280;20721;47.402;8.550;2023-12-22T03:26:35;95359;;;8.39;65.92
2711;BME280;20721;47.402;8.550;2023-12-22T03:28:35;95365;;;8.55;65.69
2711;BME280;20721;47.402;8.550;2023-12-22T03:30:35;95359;;;8.41;65.29
2711;BME280;20721;47.402;8.550;2023-12-22T03:32:35;95356;;;8.40;65.31
2711;BME280;20721;47.402;8.550;2023-12-22T03:34:35;95350;;;8.40;65.28
2711;BME280;20721;47.402;8.550;2023-12-22T03:36:35;95335;;;8.38;64.40
2711;BME280;20721;47.402;8.550;2023-12-22T03:38:35;95341;;;8.23;65.18
2711;BME280;20721;47.402;8.550;2023-12-22T03:40:35;95350;;;8.17;64.78
2711;BME280;20721;47.402;8.550;2023-12-22T03:42:35;95351;;;8.32;64.71
2711;BME280;20721;47.402;8.550;2023-12-22T03:44:35;95355;;;8.38;64.07
2711;BME280;20721;47.402;8.550;2023-12-22T03:46:35;95346;;;8.53;63.80
2711;BME280;20721;47.402;8.550;2023-12-22T03:48:35;95363;;;8.59;63.55
2711;BME280;20721;47.402;8.550;2023-12-22T03:50:35;95370;;;8.59;63.66
2711;BME280;20721;47.402;8.550;2023-12-22T03:52:35;95356;;;8.73;63.41
2711;BME280;20721;47.402;8.550;2023-12-22T03:54:35;95372;;;8.71;63.20
2711;BME280;20721;47.402;8.550;2023-12-22T03:56:35;95355;;;8.73;63.45
2711;BME280;20721;47.402;8.550;2023-12-22T03:58:35;95372;;;8.65;63.44
2711;BME280;20721;47.402;8.550;2023-12-22T04:00:35;95374;;;8.57;63.57
2711;BME280;20721;47.402;8.550;2023-12-22T04:02:35;95375;;;8.53;63.70
2711;BME280;20721;47.402;8.550;2023-12-22T04:04:38;95391;;;8.55;63.69
2711;BME280;20721;47.402;8.550;2023-12-22T04:07:35;95381;;;8.50;64.09
2711;BME280;20721;47.402;8.550;2023-12-22T04:09:36;95370;;;8.59;63.96
2711;BME280;20721;47.402;8.550;2023-12-22T04:12:36;95394;;;8.54;63.13
2711;BME280;20721;47.402;8.550;2023-12-22T04:15:35;95397;;;8.62;62.46
2711;BME280;20721;47.402;8.550;2023-12-22T04:17:35;95401;;;8.56;62.77
2711;BME280;20721;47.402;8.550;2023-12-22T04:19:35;95409;;;8.48;62.78
2711;BME280;20721;47.402;8.550;2023-12-22T04:21:35;95406;;;8.46;62.73
2711;BME280;20721;47.402;8.550;2023-12-22T04:23:36;95417;;;8.41;62.00
2711;BME280;20721;47.402;8.550;2023-12-22T04:25:35;95412;;;8.34;62.23
2711;BME280;20721;47.402;8.550;2023-12-22T04:27:35;95413;;;8.49;61.86
2711;BME280;20721;47.402;8.550;2023-12-22T04:29:35;95424;;;8.56;61.31
2711;BME280;20721;47.402;8.550;2023-12-22T04:31:35;95420;;;8.43;61.16
2711;BME280;20721;47.402;8.550;2023-12-22T04:33:35;95429;;;8.23;61.93
2711;BME280;20721;47.402;8.550;2023-12-22T04:35:35;95437;;;8.13;62.11
2711;BME280;20721;47.402;8.550;2023-12-22T04:37:35;95460;;;8.06;62.07
2711;BME280;20721;47.402;8.550;2023-12-22T04:39:35;95446;;;8.07;61.65
2711;BME280;20721;47.402;8.550;2023-12-22T04:41:35;95445;;;8.05;61.89
2711;BME280;20721;47.402;8.550;2023-12-22T04:43:35;95424;;;7.99;62.70
2711;BME280;20721;47.402;8.550;2023-12-22T04:46:35;95430;;;8.02;62.12
2711;BME280;20721;47.402;8.550;2023-12-22T04:48:35;95436;;;8.14;62.23
2711;BME280;20721;47.402;8.550;2023-12-22T04:50:35;95435;;;8.20;61.73
2711;BME280;20721;47.402;8.550;2023-12-22T04:52:35;95445;;;8.22;61.52
2711;BME280;20721;47.402;8.550;2023-12-22T04:54:35;95439;;;8.09;61.39
2711;BME280;20721;47.402;8.550;2023-12-22T04:57:35;95435;;;8.11;61.42
2711;BME280;20721;47.402;8.550;2023-12-22T04:59:35;95448;;;8.13;60.90
2711;BME280;20721;47.402;8.550;2023-12-22T05:01:35;95444;;;8.18;60.73
2711;BME280;20721;47.402;8.550;2023-12-22T05:03:35;95454;;;8.18;60.66
2711;BME280;20721;47.402;8.550;2023-12-22T05:05:35;95451;;;8.15;60.61
2711;BME280;20721;47.402;8.550;2023-12-22T05:07:35;95456;;;8.20;60.52
2711;BME280;20721;47.402;8.550;2023-12-22T05:09:35;95454;;;8.22;60.50
2711;BME280;20721;47.402;8.550;2023-12-22T05:11:35;95453;;;8.05;60.88
2711;BME280;20721;47.402;8.550;2023-12-22T05:13:36;95473;;;7.91;61.04
2711;BME280;20721;47.402;8.550;2023-12-22T05:15:35;95464;;;7.99;61.10
2711;BME280;20721;47.402;8.550;2023-12-22T05:17:35;95474;;;8.06;60.51
2711;BME280;20721;47.402;8.550;2023-12-22T05:19:35;95500;;;8.08;60.42
2711;BME280;20721;47.402;8.550;2023-12-22T05:21:35;95477;;;8.10;60.29
2711;BME280;20721;47.402;8.550;2023-12-22T05:23:35;95481;;;8.12;60.14
2711;BME280;20721;47.402;8.550;2023-12-22T05:25:35;95485;;;8.14;60.06
2711;BME280;20721;47.402;8.550;2023-12-22T05:27:35;95495;;;8.31;60.19
2711;BME280;20721;47.402;8.550;2023-12-22T05:29:35;95497;;;8.36;59.85
2711;BME280;20721;47.402;8.550;2023-12-22T05:31:36;95504;;;8.35;59.74
2711;BME280;20721;47.402;8.550;2023-12-22T05:33:35;95493;;;8.30;59.97
2711;BME280;20721;47.402;8.550;2023-12-22T05:35:40;95494;;;8.36;60.36
2711;BME280;20721;47.402;8.550;2023-12-22T05:37:35;95497;;;8.38;59.95
2711;BME280;20721;47.402;8.550;2023-12-22T05:39:35;95503;;;8.26;59.92
2711;BME280;20721;47.402;8.550;2023-12-22T05:41:37;95499;;;8.18;60.31
2711;BME280;20721;47.402;8.550;2023-12-22T05:43:35;95491;;;8.20;60.00
2711;BME280;20721;47.402;8.550;2023-12-22T05:45:35;95478;;;8.31;59.87
2711;BME280;20721;47.402;8.550;2023-12-22T05:47:35;95478;;;8.40;59.42
2711;BME280;20721;47.402;8.550;2023-12-22T05:49:35;95477;;;8.45;59.22
2711;BME280;20721;47.402;8.550;2023-12-22T05:51:36;95486;;;8.51;59.19
2711;BME280;20721;47.402;8.550;2023-12-22T05:53:35;95497;;;8.51;58.95
2711;BME280;20721;47.402;8.550;2023-12-22T05:55:35;95503;;;8.49;59.25
2711;BME280;20721;47.402;8.550;2023-12-22T05:57:35;95497;;;8.52;58.90
2711;BME280;20721;47.402;8.550;2023-12-22T05:59:35;95498;;;8.65;58.55
2711;BME280;20721;47.402;8.550;2023-12-22T06:01:36;95497;;;8.69;58.10
2711;BME280;20721;47.402;8.550;2023-12-22T06:03:35;95501;;;8.63;58.06
2711;BME280;20721;47.402;8.550;2023-12-22T06:05:35;95508;;;8.59;58.14
2711;BME280;20721;47.402;8.550;2023-12-22T06:07:35;95483;;;8.67;58.20
2711;BME280;20721;47.402;8.550;2023-12-22T06:09:35;95496;;;8.63;57.88
2711;BME280;20721;47.402;8.550;2023-12-22T06:11:35;95497;;;8.73;58.04
2711;BME280;20721;47.402;8.550;2023-12-22T06:13:35;95492;;;8.72;57.93
2711;BME280;20721;47.402;8.550;2023-12-22T06:15:35;95480;;;8.71;57.92
2711;BME280;20721;47.402;8.550;2023-12-22T06:17:35;95492;;;8.68;57.20
2711;BME280;20721;47.402;8.550;2023-12-22T06:22:35;95500;;;8.50;57.09
2711;BME280;20721;47.402;8.550;2023-12-22T06:24:36;95488;;;8.51;57.18
2711;BME280;20721;47.402;8.550;2023-12-22T06:26:35;95495;;;8.43;57.27
2711;BME280;20721;47.402;8.550;2023-12-22T06:28:36;95498;;;8.51;57.02
2711;BME280;20721;47.402;8.550;2023-12-22T06:30:35;95493;;;8.46;57.03
2711;BME280;20721;47.402;8.550;2023-12-22T06:32:39;95506;;;8.37;56.97
2711;BME280;20721;47.402;8.550;2023-12-22T06:34:35;95505;;;8.34;56.71
2711;BME280;20721;47.402;8.550;2023-12-22T06:36:35;95509;;;8.36;56.88
2711;BME280;20721;47.402;8.550;2023-12-22T06:38:36;95513;;;8.30;57.01
2711;BME280;20721;47.402;8.550;2023-12-22T06:40:36;95507;;;8.50;56.98
2711;BME280;20721;47.402;8.550;2023-12-22T06:42:35;95506;;;8.61;56.42
2711;BME280;20721;47.402;8.550;2023-12-22T06:44:35;95517;;;8.61;56.53
2711;BME280;20721;47.402;8.550;2023-12-22T06:46:35;95518;;;8.53;56.59
2711;BME280;20721;47.402;8.550;2023-12-22T06:48:37;95520;;;8.54;56.58
2711;BME280;20721;47.402;8.550;2023-12-22T06:50:36;95518;;;8.46;56.97
2711;BME280;20721;47.402;8.550;2023-12-22T06:52:35;95515;;;8.49;57.05
2711;BME280;20721;47.402;8.550;2023-12-22T06:54:35;95515;;;8.49;56.77
2711;BME280;20721;47.402;8.550;2023-12-22T06:56:35;95515;;;8.58;56.70
2711;BME280;20721;47.402;8.550;2023-12-22T06:58:35;95509;;;8.60;56.33
2711;BME280;20721;47.402;8.550;2023-12-22T07:00:40;95514;;;8.72;56.19
2711;BME280;20721;47.402;8.550;2023-12-22T07:02:36;95515;;;8.67;56.10
2711;BME280;20721;47.402;8.550;2023-12-22T07:06:35;95504;;;8.56;56.47
2711;BME280;20721;47.402;8.550;2023-12-22T07:08:35;95505;;;8.60;56.10
2711;BME280;20721;47.402;8.550;2023-12-22T07:10:35;95503;;;8.65;56.03
2711;BME280;20721;47.402;8.550;2023-12-22T07:12:35;95520;;;8.56;56.02
2711;BME280;20721;47.402;8.550;2023-12-22T07:14:36;95526;;;8.58;56.28
2711;BME280;20721;47.402;8.550;2023-12-22T07:16:36;95523;;;8.52;56.27
2711;BME280;20721;47.402;8.550;2023-12-22T07:18:37;95547;;;8.65;55.99
2711;BME280;20721;47.402;8.550;2023-12-22T07:20:35;95556;;;8.67;56.09
2711;BME280;20721;47.402;8.550;2023-12-22T07:22:35;95564;;;8.61;56.32
2711;BME280;20721;47.402;8.550;2023-12-22T07:24:35;95556;;;8.64;57.32
2711;BME280;20721;47.402;8.550;2023-12-22T07:26:36;95578;;;8.57;58.40
2711;BME280;20721;47.402;8.550;2023-12-22T07:28:36;95574;;;8.41;59.26
2711;BME280;20721;47.402;8.550;2023-12-22T07:30:36;95578;;;8.32;59.77
2711;BME280;20721;47.402;8.550;2023-12-22T07:32:35;95586;;;8.48;59.68
2711;BME280;20721;47.402;8.550;2023-12-22T07:34:39;95589;;;8.39;59.66
2711;BME280;20721;47.402;8.550;2023-12-22T07:36:45;95586;;;8.29;59.67
2711;BME280;20721;47.402;8.550;2023-12-22T07:38:36;95597;;;8.22;59.76
2711;BME280;20721;47.402;8.550;2023-12-22T07:41:37;95601;;;8.21;59.60
2711;BME280;20721;47.402;8.550;2023-12-22T07:43:36;95600;;;8.28;59.60
2711;BME280;20721;47.402;8.550;2023-12-22T07:45:36;95607;;;8.42;59.58
2711;BME280;20721;47.402;8.550;2023-12-22T07:47:37;95607;;;8.45;58.84
2711;BME280;20721;47.402;8.550;2023-12-22T07:49:36;95608;;;8.51;58.49
2711;BME280;20721;47.402;8.550;2023-12-22T07:51:35;95616;;;8.68;58.09
2711;BME280;20721;47.402;8.550;2023-12-22T07:53:35;95616;;;8.83;58.08
2711;BME280;20721;47.402;8.550;2023-12-22T07:55:35;95621;;;8.85;57.56
2711;BME280;20721;47.402;8.550;2023-12-22T07:57:36;95624;;;8.81;57.65
2711;BME280;20721;47.402;8.550;2023-12-22T07:59:36;95626;;;8.84;57.34
2711;BME280;20721;47.402;8.550;2023-12-22T08:01:35;95638;;;8.56;57.70
2711;BME280;20721;47.402;8.550;2023-12-22T08:03:37;95635;;;8.54;57.82
2711;BME280;20721;47.402;8.550;2023-12-22T08:05:35;95648;;;8.59;57.99
2711;BME280;20721;47.402;8.550;2023-12-22T08:07:36;95651;;;8.79;57.44
2711;BME280;20721;47.402;8.550;2023-12-22T08:09:35;95644;;;8.90;56.96
2711;BME280;20721;47.402;8.550;2023-12-22T08:11:36;95642;;;8.91;56.90
2711;BME280;20721;47.402;8.550;2023-12-22T08:13:36;95638;;;8.85;57.01
2711;BME280;20721;47.402;8.550;2023-12-22T08:15:37;95640;;;8.89;56.66
2711;BME280;20721;47.402;8.550;2023-12-22T08:17:36;95640;;;8.92;56.77
2711;BME280;20721;47.402;8.550;2023-12-22T08:19:37;95653;;;8.80;56.80
2711;BME280;20721;47.402;8.550;2023-12-22T08:21:46;95647;;;8.84;56.86
2711;BME280;20721;47.402;8.550;2023-12-22T08:23:44;95650;;;8.89;56.85
2711;BME280;20721;47.402;8.550;2023-12-22T08:25:36;95655;;;8.81;57.25
2711;BME280;20721;47.402;8.550;2023-12-22T08:27:36;95661;;;8.78;57.06
2711;BME280;20721;47.402;8.550;2023-12-22T08:30:36;95656;;;8.89;57.10
2711;BME280;20721;47.402;8.550;2023-12-22T08:32:36;95646;;;8.72;57.08
2711;BME280;20721;47.402;8.550;2023-12-22T08:34:36;95648;;;8.68;57.20
2711;BME280;20721;47.402;8.550;2023-12-22T08:36:36;95655;;;8.87;57.18
2711;BME280;20721;47.402;8.550;2023-12-22T08:38:39;95651;;;8.99;56.96
2711;BME280;20721;47.402;8.550;2023-12-22T08:40:36;95659;;;8.88;57.02
2711;BME280;20721;47.402;8.550;2023-12-22T08:42:36;95654;;;8.90;56.97
2711;BME280;20721;47.402;8.550;2023-12-22T08:44:36;95664;;;9.01;56.87
2711;BME280;20721;47.402;8.550;2023-12-22T08:46:36;95672;;;8.96;56.81
2711;BME280;20721;47.402;8.550;2023-12-22T08:48:37;95660;;;9.16;56.49
2711;BME280;20721;47.402;8.550;2023-12-22T08:50:36;95652;;;9.14;56.52
2711;BME280;20721;47.402;8.550;2023-12-22T08:52:36;95659;;;9.09;56.60
2711;BME280;20721;47.402;8.550;2023-12-22T08:54:36;95647;;;9.07;56.83
2711;BME280;20721;47.402;8.550;2023-12-22T08:56:36;95646;;;9.05;57.25
2711;BME280;20721;47.402;8.550;2023-12-22T08:58:36;95650;;;9.13;57.73
2711;BME280;20721;47.402;8.550;2023-12-22T09:00:36;95644;;;9.20;57.85
2711;BME280;20721;47.402;8.550;2023-12-22T09:02:36;95651;;;9.17;57.59
2711;BME280;20721;47.402;8.550;2023-12-22T09:04:36;95652;;;9.26;58.39
2711;BME280;20721;47.402;8.550;2023-12-22T09:06:36;95650;;;9.16;58.40
2711;BME280;20721;47.402;8.550;2023-12-22T09:08:36;95661;;;9.24;58.39
2711;BME280;20721;47.402;8.550;2023-12-22T09:10:36;95652;;;9.22;58.07
2711;BME280;20721;47.402;8.550;2023-12-22T09:12:36;95649;;;9.03;58.97
2711;BME280;20721;47.402;8.550;2023-12-22T09:14:36;95658;;;9.03;59.12
2711;BME280;20721;47.402;8.550;2023-12-22T09:16:36;95662;;;9.07;59.37
2711;BME280;20721;47.402;8.550;2023-12-22T09:18:36;95662;;;8.98;59.32
2711;BME280;20721;47.402;8.550;2023-12-22T09:21:36;95652;;;8.91;59.84
2711;BME280;20721;47.402;8.550;2023-12-22T09:24:36;95663;;;8.89;60.38
2711;BME280;20721;47.402;8.550;2023-12-22T09:26:36;95656;;;8.88;60.06
2711;BME280;20721;47.402;8.550;2023-12-22T09:28:36;95681;;;8.78;60.28
2711;BME280;20721;47.402;8.550;2023-12-22T09:30:36;95672;;;8.67;60.18
2711;BME280;20721;47.402;8.550;2023-12-22T09:32:36;95659;;;8.63;60.52
2711;BME280;20721;47.402;8.550;2023-12-22T09:34:36;95667;;;8.83;60.42
2711;BME280;20721;47.402;8.550;2023-12-22T09:36:36;95670;;;8.86;59.38
2711;BME280;20721;47.402;8.550;2023-12-22T09:38:36;95681;;;8.96;60.05
2711;BME280;20721;47.402;8.550;2023-12-22T09:40:36;95674;;;8.99;59.36
2711;BME280;20721;47.402;8.550;2023-12-22T09:42:37;95673;;;9.07;58.91
2711;BME280;20721;47.402;8.550;2023-12-22T09:44:36;95672;;;9.10;58.36
2711;BME280;20721;47.402;8.550;2023-12-22T09:46:36;95674;;;8.99;58.49
2711;BME280;20721;47.402;8.550;2023-12-22T09:48:37;95682;;;8.91;58.62
2711;BME280;20721;47.402;8.550;2023-12-22T09:50:36;95682;;;8.92;58.53
2711;BME280;20721;47.402;8.550;2023-12-22T09:52:37;95694;;;8.93;58.45
2711;BME280;20721;47.402;8.550;2023-12-22T09:54:36;95692;;;8.89;58.50
2711;BME280;20721;47.402;8.550;2023-12-22T09:56:38;95698;;;8.98;58.39
2711;BME280;20721;47.402;8.550;2023-12-22T09:58:36;95706;;;8.94;58.22
2711;BME280;20721;47.402;8.550;2023-12-22T10:00:37;95705;;;8.82;58.55
2711;BME280;20721;47.402;8.550;2023-12-22T10:02:36;95704;;;8.79;58.23
2711;BME280;20721;47.402;8.550;2023-12-22T10:04:36;95695;;;8.79;58.36
2711;BME280;20721;47.402;8.550;2023-12-22T10:06:36;95698;;;8.97;58.21
2711;BME280;20721;47.402;8.550;2023-12-22T10:09:36;95682;;;9.10;57.91
2711;BME280;20721;47.402;8.550;2023-12-22T10:11:37;95685;;;9.24;57.68
2711;BME280;20721;47.402;8.550;2023-12-22T10:13:36;95673;;;9.37;57.39
2711;BME280;20721;47.402;8.550;2023-12-22T10:15:37;95672;;;9.44;57.06
2711;BME280;20721;47.402;8.550;2023-12-22T10:17:36;95670;;;9.47;56.99
2711;BME280;20721;47.402;8.550;2023-12-22T10:19:36;95671;;;9.48;56.55
2711;BME280;20721;47.402;8.550;2023-12-22T10:21:36;95669;;;9.25;56.96
2711;BME280;20721;47.402;8.550;2023-12-22T10:23:36;95667;;;9.22;57.18
2711;BME280;20721;47.402;8.550;2023-12-22T10:25:36;95666;;;9.34;57.25
2711;BME280;20721;47.402;8.550;2023-12-22T10:27:36;95665;;;9.44;56.92
2711;BME280;20721;47.402;8.550;2023-12-22T10:29:36;95673;;;9.49;56.66
2711;BME280;20721;47.402;8.550;2023-12-22T10:31:39;95676;;;9.54;56.80
2711;BME280;20721;47.402;8.550;2023-12-22T10:34:37;95669;;;9.52;56.67
2711;BME280;20721;47.402;8.550;2023-12-22T10:36:36;95668;;;9.40;57.18
2711;BME280;20721;47.402;8.550;2023-12-22T10:38:36;95662;;;9.24;57.80
2711;BME280;20721;47.402;8.550;2023-12-22T10:40:37;95662;;;9.05;58.77
2711;BME280;20721;47.402;8.550;2023-12-22T10:42:36;95651;;;9.09;59.16
2711;BME280;20721;47.402;8.550;2023-12-22T10:44:36;95653;;;9.26;59.47
2711;BME280;20721;47.402;8.550;2023-12-22T10:46:36;95646;;;9.27;59.11
2711;BME280;20721;47.402;8.550;2023-12-22T10:48:36;95653;;;9.24;59.29
2711;BME280;20721;47.402;8.550;2023-12-22T10:50:36;95650;;;9.22;59.96
2711;BME280;20721;47.402;8.550;2023-12-22T10:52:36;95646;;;9.16;60.18
2711;BME280;20721;47.402;8.550;2023-12-22T10:54:36;95641;;;9.21;60.52
2711;BME280;20721;47.402;8.550;2023-12-22T10:57:38;95636;;;9.32;59.95
2711;BME280;20721;47.402;8.550;2023-12-22T10:59:44;95632;;;9.15;60.41
2711;BME280;20721;47.402;8.550;2023-12-22T11:01:39;95620;;;9.05;60.50
2711;BME280;20721;47.402;8.550;2023-12-22T11:03:36;95625;;;8.97;61.19
2711;BME280;20721;47.402;8.550;2023-12-22T11:05:37;95630;;;8.96;61.50
2711;BME280;20721;47.402;8.550;2023-12-22T11:07:37;95620;;;8.94;61.36
2711;BME280;20721;47.402;8.550;2023-12-22T11:09:36;95623;;;8.89;61.82
2711;BME280;20721;47.402;8.550;2023-12-22T11:11:37;95621;;;8.76;62.21
2711;BME280;20721;47.402;8.550;2023-12-22T11:13:36;95633;;;8.71;63.25
2711;BME280;20721;47.402;8.550;2023-12-22T11:15:36;95607;;;8.64;63.70
2711;BME280;20721;47.402;8.550;2023-12-22T11:17:36;95604;;;8.48;64.44
2711;BME280;20721;47.402;8.550;2023-12-22T11:20:36;95603;;;8.34;65.66
2711;BME280;20721;47.402;8.550;2023-12-22T11:22:36;95578;;;8.36;66.08
2711;BME280;20721;47.402;8.550;2023-12-22T11:24:36;95584;;;8.34;65.40
2711;BME280;20721;47.402;8.550;2023-12-22T11:26:36;95590;;;8.44;65.76
2711;BME280;20721;47.402;8.550;2023-12-22T11:28:36;95574;;;8.42;65.87
2711;BME280;20721;47.402;8.550;2023-12-22T11:30:36;95571;;;8.28;65.86
2711;BME280;20721;47.402;8.550;2023-12-22T11:32:36;95562;;;8.25;65.92
2711;BME280;20721;47.402;8.550;2023-12-22T11:34:36;95591;;;8.23;65.86
2711;BME280;20721;47.402;8.550;2023-12-22T11:36:36;95565;;;8.14;65.63
2711;BME280;20721;47.402;8.550;2023-12-22T11:38:36;95556;;;8.24;66.60
2711;BME280;20721;47.402;8.550;2023-12-22T11:40:36;95560;;;8.20;66.02
2711;BME280;20721;47.402;8.550;2023-12-22T11:42:43;95554;;;8.10;66.20
2711;BME280;20721;47.402;8.550;2023-12-22T11:44:36;95557;;;8.17;66.47
2711;BME280;20721;47.402;8.550;2023-12-22T11:46:36;95548;;;8.11;66.49
2711;BME280;20721;47.402;8.550;2023-12-22T11:48:37;95548;;;8.04;66.81
2711;BME280;20721;47.402;8.550;2023-12-22T11:50:36;95556;;;8.15;67.43